createdAt,value
2018-05-04T00:00:29.731Z,9.48
2018-05-04T00:01:30.349Z,9.48
2018-05-04T00:02:30.878Z,9.41
2018-05-04T00:03:31.435Z,9.40
2018-05-04T00:04:31.989Z,9.50
2018-05-04T00:05:32.534Z,9.51
2018-05-04T00:06:33.082Z,9.35
2018-05-04T00:07:33.623Z,9.32
2018-05-04T00:08:34.170Z,9.32
2018-05-04T00:09:34.717Z,9.22
2018-05-04T00:10:35.261Z,9.28
2018-05-04T00:11:35.802Z,9.11
2018-05-04T00:12:36.341Z,9.17
2018-05-04T00:13:36.887Z,9.00
2018-05-04T00:14:37.428Z,8.91
2018-05-04T00:15:37.974Z,8.95
2018-05-04T00:16:38.517Z,8.98
2018-05-04T00:17:39.065Z,8.92
2018-05-04T00:18:39.610Z,8.96
2018-05-04T00:19:40.158Z,8.89
2018-05-04T00:20:40.704Z,8.84
2018-05-04T00:21:41.251Z,8.66
2018-05-04T00:22:41.791Z,8.59
2018-05-04T00:23:42.333Z,8.64
2018-05-04T00:24:42.881Z,8.60
2018-05-04T00:25:43.427Z,8.70
2018-05-04T00:26:43.965Z,8.76
2018-05-04T00:27:44.510Z,8.60
2018-05-04T00:28:45.057Z,8.68
2018-05-04T00:29:45.594Z,8.59
2018-05-04T00:30:46.138Z,8.60
2018-05-04T00:31:46.682Z,8.58
2018-05-04T00:32:47.227Z,8.60
2018-05-04T00:33:47.772Z,8.64
2018-05-04T00:34:48.316Z,8.66
2018-05-04T00:35:48.862Z,8.64
2018-05-04T00:36:49.406Z,8.58
2018-05-04T00:37:49.950Z,8.56
2018-05-04T00:38:50.492Z,8.56
2018-05-04T00:39:51.038Z,8.55
2018-05-04T00:40:51.579Z,8.60
2018-05-04T00:41:52.119Z,8.66
2018-05-04T00:42:52.663Z,8.60
2018-05-04T00:43:53.197Z,8.60
2018-05-04T00:44:53.746Z,8.66
2018-05-04T00:45:54.285Z,8.66
2018-05-04T00:46:54.833Z,8.58
2018-05-04T00:47:55.379Z,8.66
2018-05-04T00:48:55.916Z,8.68
2018-05-04T00:49:56.456Z,8.70
2018-05-04T00:50:57.001Z,8.68
2018-05-04T00:51:57.538Z,8.63
2018-05-04T00:52:58.078Z,8.64
2018-05-04T00:53:58.618Z,8.53
2018-05-04T00:54:59.172Z,8.49
2018-05-04T00:55:59.709Z,8.48
2018-05-04T00:57:00.257Z,8.41
2018-05-04T00:58:00.805Z,8.40
2018-05-04T00:59:01.354Z,8.38
2018-05-04T01:00:01.899Z,8.31
2018-05-04T01:01:02.441Z,8.23
2018-05-04T01:02:02.977Z,8.25
2018-05-04T01:03:03.524Z,8.19
2018-05-04T01:04:04.068Z,8.17
2018-05-04T01:05:04.615Z,8.04
2018-05-04T01:06:05.160Z,8.15
2018-05-04T01:07:05.705Z,8.10
2018-05-04T01:08:06.254Z,8.01
2018-05-04T01:09:06.794Z,8.04
2018-05-04T01:10:07.342Z,7.99
2018-05-04T01:11:07.885Z,8.04
2018-05-04T01:12:08.428Z,7.98
2018-05-04T01:13:08.971Z,8.02
2018-05-04T01:14:09.515Z,8.01
2018-05-04T01:15:10.054Z,7.92
2018-05-04T01:16:10.598Z,7.89
2018-05-04T01:17:11.144Z,7.83
2018-05-04T01:18:11.683Z,7.84
2018-05-04T01:19:12.227Z,7.83
2018-05-04T01:20:12.765Z,7.80
2018-05-04T01:21:13.310Z,7.81
2018-05-04T01:22:13.852Z,7.81
2018-05-04T01:23:14.405Z,7.80
2018-05-04T01:24:14.940Z,7.81
2018-05-04T01:25:15.486Z,7.81
2018-05-04T01:26:16.029Z,7.83
2018-05-04T01:27:16.577Z,7.72
2018-05-04T01:28:17.116Z,7.76
2018-05-04T01:29:17.659Z,7.72
2018-05-04T01:30:18.198Z,7.70
2018-05-04T01:31:18.739Z,7.79
2018-05-04T01:32:19.286Z,7.72
2018-05-04T01:33:19.831Z,7.73
2018-05-04T01:34:20.378Z,7.54
2018-05-04T01:35:20.921Z,7.50
2018-05-04T01:36:21.471Z,7.50
2018-05-04T01:37:22.011Z,7.46
2018-05-04T01:38:22.551Z,7.40
2018-05-04T01:39:23.125Z,7.40
2018-05-04T01:40:23.639Z,7.37
2018-05-04T01:41:24.187Z,7.32
2018-05-04T01:42:24.729Z,7.39
2018-05-04T01:43:25.273Z,7.37
2018-05-04T01:44:25.819Z,7.32
2018-05-04T01:45:26.363Z,7.28
2018-05-04T01:46:26.903Z,7.37
2018-05-04T01:47:27.446Z,7.45
2018-05-04T01:48:27.991Z,7.37
2018-05-04T01:49:28.529Z,7.37
2018-05-04T01:50:29.076Z,7.43
2018-05-04T01:51:29.616Z,7.33
2018-05-04T01:52:30.162Z,7.39
2018-05-04T01:53:30.708Z,7.36
2018-05-04T01:54:31.252Z,7.35
2018-05-04T01:55:31.794Z,7.37
2018-05-04T01:56:32.341Z,7.33
2018-05-04T01:57:32.881Z,7.33
2018-05-04T01:58:33.425Z,7.32
2018-05-04T01:59:33.961Z,7.21
2018-05-04T02:00:34.499Z,7.29
2018-05-04T02:01:35.040Z,7.27
2018-05-04T02:02:35.585Z,7.27
2018-05-04T02:03:36.130Z,7.21
2018-05-04T02:04:36.674Z,7.14
2018-05-04T02:05:37.216Z,7.09
2018-05-04T02:06:37.756Z,7.14
2018-05-04T02:07:38.299Z,7.10
2018-05-04T02:08:38.840Z,7.19
2018-05-04T02:09:39.383Z,7.25
2018-05-04T02:10:39.930Z,7.15
2018-05-04T02:11:40.474Z,7.21
2018-05-04T02:12:41.022Z,7.18
2018-05-04T02:13:41.569Z,7.14
2018-05-04T02:14:42.101Z,7.06
2018-05-04T02:15:42.650Z,7.00
2018-05-04T02:16:43.191Z,7.03
2018-05-04T02:17:43.734Z,7.04
2018-05-04T02:18:44.276Z,7.00
2018-05-04T02:19:44.821Z,7.07
2018-05-04T02:20:45.366Z,7.00
2018-05-04T02:21:45.909Z,7.02
2018-05-04T02:22:46.453Z,7.14
2018-05-04T02:23:47.000Z,7.04
2018-05-04T02:24:47.541Z,6.99
2018-05-04T02:25:48.085Z,7.03
2018-05-04T02:26:48.629Z,6.97
2018-05-04T02:27:49.175Z,7.00
2018-05-04T02:28:49.725Z,6.97
2018-05-04T02:29:50.263Z,6.97
2018-05-04T02:30:50.813Z,6.97
2018-05-04T02:31:51.351Z,7.03
2018-05-04T02:32:51.893Z,6.91
2018-05-04T02:33:52.432Z,6.73
2018-05-04T02:34:52.977Z,6.78
2018-05-04T02:35:53.524Z,6.78
2018-05-04T02:36:54.068Z,6.79
2018-05-04T02:37:54.606Z,6.82
2018-05-04T02:38:55.152Z,6.86
2018-05-04T02:39:55.699Z,6.86
2018-05-04T02:40:56.234Z,6.84
2018-05-04T02:41:56.780Z,6.78
2018-05-04T02:42:57.318Z,6.79
2018-05-04T02:43:57.862Z,6.79
2018-05-04T02:44:58.410Z,6.79
2018-05-04T02:45:58.955Z,6.73
2018-05-04T02:46:59.499Z,6.79
2018-05-04T02:48:00.047Z,6.70
2018-05-04T02:49:00.587Z,6.73
2018-05-04T02:50:01.126Z,6.76
2018-05-04T02:51:01.673Z,6.73
2018-05-04T02:52:02.215Z,6.66
2018-05-04T02:53:02.760Z,6.68
2018-05-04T02:54:03.302Z,6.60
2018-05-04T02:55:03.860Z,6.66
2018-05-04T02:56:04.392Z,6.70
2018-05-04T02:57:04.931Z,6.64
2018-05-04T02:58:05.473Z,6.58
2018-05-04T02:59:06.022Z,6.60
2018-05-04T03:00:06.568Z,6.55
2018-05-04T03:01:07.108Z,6.57
2018-05-04T03:02:07.650Z,6.52
2018-05-04T03:03:08.217Z,6.45
2018-05-04T03:04:08.742Z,6.38
2018-05-04T03:05:09.284Z,6.38
2018-05-04T03:06:09.840Z,6.25
2018-05-04T03:07:10.373Z,6.24
2018-05-04T03:08:10.921Z,6.25
2018-05-04T03:09:11.466Z,6.31
2018-05-04T03:10:12.007Z,6.20
2018-05-04T03:11:12.551Z,6.08
2018-05-04T03:12:13.096Z,6.04
2018-05-04T03:13:13.644Z,6.04
2018-05-04T03:14:14.186Z,5.88
2018-05-04T03:15:14.732Z,5.88
2018-05-04T03:16:15.276Z,5.91
2018-05-04T03:17:15.821Z,5.93
2018-05-04T03:18:16.359Z,5.90
2018-05-04T03:19:16.906Z,5.83
2018-05-04T03:20:17.450Z,5.94
2018-05-04T03:21:17.989Z,5.94
2018-05-04T03:22:18.530Z,5.96
2018-05-04T03:23:19.071Z,5.96
2018-05-04T03:24:19.616Z,5.97
2018-05-04T03:25:20.162Z,6.08
2018-05-04T03:26:20.703Z,5.96
2018-05-04T03:27:21.247Z,6.02
2018-05-04T03:28:21.792Z,6.11
2018-05-04T03:29:22.329Z,6.08
2018-05-04T03:30:22.873Z,6.04
2018-05-04T03:31:23.417Z,6.09
2018-05-04T03:32:23.954Z,6.08
2018-05-04T03:33:24.501Z,6.04
2018-05-04T03:34:25.051Z,5.91
2018-05-04T03:35:25.575Z,6.02
2018-05-04T03:36:26.133Z,5.99
2018-05-04T03:37:26.651Z,5.96
2018-05-04T03:38:27.196Z,6.01
2018-05-04T03:39:27.744Z,6.01
2018-05-04T03:40:28.285Z,6.04
2018-05-04T03:41:28.835Z,6.02
2018-05-04T03:42:29.384Z,5.96
2018-05-04T03:43:29.929Z,5.97
2018-05-04T03:44:30.468Z,6.05
2018-05-04T03:45:31.010Z,6.08
2018-05-04T03:46:31.555Z,6.05
2018-05-04T03:47:32.095Z,5.96
2018-05-04T03:48:32.633Z,6.04
2018-05-04T03:49:33.187Z,6.02
2018-05-04T03:50:33.732Z,6.01
2018-05-04T03:51:34.281Z,5.94
2018-05-04T03:52:34.825Z,6.06
2018-05-04T03:53:35.371Z,5.94
2018-05-04T03:54:35.916Z,5.97
2018-05-04T03:55:36.459Z,5.87
2018-05-04T03:56:37.001Z,5.94
2018-05-04T03:57:37.546Z,5.90
2018-05-04T03:58:38.090Z,5.91
2018-05-04T03:59:38.639Z,5.93
2018-05-04T04:00:39.184Z,5.91
2018-05-04T04:01:39.729Z,5.90
2018-05-04T04:02:40.279Z,5.84
2018-05-04T04:03:40.826Z,5.84
2018-05-04T04:04:41.375Z,5.87
2018-05-04T04:05:41.926Z,5.90
2018-05-04T04:06:42.471Z,5.86
2018-05-04T04:07:43.026Z,5.91
2018-05-04T04:08:43.571Z,5.91
2018-05-04T04:09:44.123Z,5.87
2018-05-04T04:10:44.679Z,5.90
2018-05-04T04:11:45.226Z,5.91
2018-05-04T04:12:45.770Z,5.87
2018-05-04T04:13:46.316Z,5.91
2018-05-04T04:14:46.863Z,5.91
2018-05-04T04:15:47.410Z,5.97
2018-05-04T04:16:47.950Z,5.90
2018-05-04T04:17:48.557Z,5.90
2018-05-04T04:18:49.042Z,5.90
2018-05-04T04:19:49.589Z,5.93
2018-05-04T04:20:50.142Z,5.90
2018-05-04T04:21:50.683Z,5.90
2018-05-04T04:22:51.227Z,5.91
2018-05-04T04:23:51.776Z,5.79
2018-05-04T04:24:52.325Z,5.73
2018-05-04T04:25:52.869Z,5.78
2018-05-04T04:26:53.421Z,5.78
2018-05-04T04:27:53.969Z,5.76
2018-05-04T04:28:54.524Z,5.90
2018-05-04T04:29:55.091Z,5.91
2018-05-04T04:30:55.641Z,6.08
2018-05-04T04:31:56.194Z,6.04
2018-05-04T04:32:56.740Z,6.09
2018-05-04T04:33:57.283Z,6.08
2018-05-04T04:34:57.831Z,6.11
2018-05-04T04:35:58.379Z,6.11
2018-05-04T04:36:58.929Z,6.11
2018-05-04T04:37:59.481Z,6.11
2018-05-04T04:39:00.029Z,6.11
2018-05-04T04:40:00.579Z,6.19
2018-05-04T04:41:01.139Z,6.16
2018-05-04T04:42:01.676Z,6.15
2018-05-04T04:43:02.222Z,6.19
2018-05-04T04:44:02.770Z,6.34
2018-05-04T04:45:03.323Z,6.30
2018-05-04T04:46:03.867Z,6.40
2018-05-04T04:47:04.419Z,6.38
2018-05-04T04:48:04.966Z,6.38
2018-05-04T04:49:05.510Z,6.45
2018-05-04T04:50:06.074Z,6.66
2018-05-04T04:51:06.652Z,6.78
2018-05-04T04:52:07.163Z,7.00
2018-05-04T04:53:07.708Z,7.02
2018-05-04T04:54:08.252Z,7.21
2018-05-04T04:55:08.801Z,7.28
2018-05-04T04:56:09.355Z,7.46
2018-05-04T04:57:09.902Z,7.43
2018-05-04T04:58:10.454Z,7.53
2018-05-04T04:59:11.003Z,7.58
2018-05-04T05:00:11.607Z,7.72
2018-05-04T05:01:12.157Z,7.83
2018-05-04T05:02:12.705Z,8.09
2018-05-04T05:03:13.305Z,8.28
2018-05-04T05:04:13.811Z,8.95
2018-05-04T05:05:14.365Z,9.43
2018-05-04T05:06:14.920Z,9.76
2018-05-04T05:07:15.470Z,9.94
2018-05-04T05:08:16.025Z,10.13
2018-05-04T05:09:16.574Z,10.31
2018-05-04T05:10:17.129Z,10.81
2018-05-04T05:11:17.684Z,11.27
2018-05-04T05:12:18.238Z,11.57
2018-05-04T05:13:18.789Z,11.85
2018-05-04T05:14:19.345Z,11.88
2018-05-04T05:15:19.905Z,11.76
2018-05-04T05:16:20.457Z,11.80
2018-05-04T05:17:21.013Z,11.76
2018-05-04T05:18:21.571Z,11.63
2018-05-04T05:19:22.124Z,11.32
2018-05-04T05:20:22.720Z,11.09
2018-05-04T05:21:23.241Z,10.90
2018-05-04T05:22:23.793Z,10.96
2018-05-04T05:23:24.349Z,11.44
2018-05-04T05:24:24.906Z,12.01
2018-05-04T05:25:25.484Z,12.53
2018-05-04T05:26:26.017Z,12.89
2018-05-04T05:27:26.571Z,13.08
2018-05-04T05:28:27.129Z,13.45
2018-05-04T05:29:27.706Z,13.69
2018-05-04T05:30:28.239Z,13.94
2018-05-04T05:31:28.797Z,14.07
2018-05-04T05:32:29.357Z,14.30
2018-05-04T05:33:29.919Z,14.30
2018-05-04T05:34:30.483Z,14.48
2018-05-04T05:35:31.154Z,14.86
2018-05-04T05:36:31.649Z,15.04
2018-05-04T05:37:32.194Z,15.32
2018-05-04T05:38:32.751Z,15.91
2018-05-04T05:39:33.307Z,16.15
2018-05-04T05:40:33.875Z,16.17
2018-05-04T05:41:34.434Z,16.05
2018-05-04T05:42:34.993Z,15.69
2018-05-04T05:43:35.550Z,15.42
2018-05-04T05:44:36.147Z,15.29
2018-05-04T05:45:36.699Z,15.13
2018-05-04T05:46:37.265Z,15.55
2018-05-04T05:47:37.827Z,15.98
2018-05-04T05:48:38.387Z,16.08
2018-05-04T05:49:38.947Z,15.83
2018-05-04T05:50:39.509Z,15.47
2018-05-04T05:51:40.070Z,15.46
2018-05-04T05:52:40.629Z,15.65
2018-05-04T05:53:41.185Z,15.65
2018-05-04T05:54:41.816Z,15.43
2018-05-04T05:55:42.307Z,15.03
2018-05-04T05:56:42.866Z,15.00
2018-05-04T05:57:43.435Z,15.21
2018-05-04T05:58:43.986Z,15.36
2018-05-04T05:59:44.556Z,15.61
2018-05-04T06:00:45.116Z,15.71
2018-05-04T06:01:45.681Z,16.12
2018-05-04T06:02:46.248Z,16.27
2018-05-04T06:03:46.817Z,16.56
2018-05-04T06:04:47.381Z,17.00
2018-05-04T06:05:47.946Z,17.45
2018-05-04T06:06:48.510Z,17.48
2018-05-04T06:07:49.077Z,17.72
2018-05-04T06:08:49.637Z,17.92
2018-05-04T06:09:50.202Z,17.92
2018-05-04T06:10:50.775Z,18.41
2018-05-04T06:11:51.344Z,18.73
2018-05-04T06:12:51.907Z,18.80
2018-05-04T06:13:52.474Z,18.98
2018-05-04T06:14:53.044Z,19.27
2018-05-04T06:15:53.620Z,19.47
2018-05-04T06:16:54.193Z,19.61
2018-05-04T06:17:54.762Z,19.61
2018-05-04T06:18:55.332Z,19.41
2018-05-04T06:19:55.899Z,18.99
2018-05-04T06:20:56.469Z,19.18
2018-05-04T06:21:57.042Z,19.29
2018-05-04T06:22:57.615Z,19.33
2018-05-04T06:23:58.179Z,19.15
2018-05-04T06:24:58.829Z,19.36
2018-05-04T06:25:59.311Z,19.27
2018-05-04T06:26:59.873Z,19.43
2018-05-04T06:28:00.439Z,19.44
2018-05-04T06:29:01.007Z,19.74
2018-05-04T06:30:01.575Z,20.09
2018-05-04T06:31:02.150Z,20.36
2018-05-04T06:32:02.719Z,20.47
2018-05-04T06:33:03.292Z,20.55
2018-05-04T06:34:03.862Z,20.66
2018-05-04T06:35:04.434Z,21.09
2018-05-04T06:36:05.005Z,21.49
2018-05-04T06:37:05.574Z,21.62
2018-05-04T06:38:06.145Z,21.46
2018-05-04T06:39:06.716Z,21.55
2018-05-04T06:40:07.288Z,21.76
2018-05-04T06:41:07.850Z,21.92
2018-05-04T06:42:08.423Z,21.92
2018-05-04T06:43:08.986Z,22.26
2018-05-04T06:44:09.554Z,22.21
2018-05-04T06:45:10.129Z,22.44
2018-05-04T06:46:10.696Z,22.23
2018-05-04T06:47:11.265Z,22.13
2018-05-04T06:48:11.832Z,22.01
2018-05-04T06:49:12.439Z,22.21
2018-05-04T06:50:12.968Z,22.20
2018-05-04T06:51:13.537Z,22.54
2018-05-04T06:52:14.102Z,22.68
2018-05-04T06:53:14.688Z,22.62
2018-05-04T06:54:15.234Z,22.58
2018-05-04T06:55:15.813Z,22.39
2018-05-04T06:56:16.379Z,22.26
2018-05-04T06:57:16.947Z,22.23
2018-05-04T06:58:17.508Z,22.50
2018-05-04T06:59:18.187Z,22.60
2018-05-04T07:00:18.696Z,22.60
2018-05-04T07:01:19.259Z,22.85
2018-05-04T07:02:19.830Z,22.84
2018-05-04T07:03:20.396Z,23.00
2018-05-04T07:04:20.962Z,23.03
2018-05-04T07:05:21.535Z,23.00
2018-05-04T07:06:22.114Z,23.16
2018-05-04T07:07:22.691Z,23.23
2018-05-04T07:08:23.272Z,23.46
2018-05-04T07:09:24.102Z,23.46
2018-05-04T07:10:24.698Z,23.54
2018-05-04T07:11:25.241Z,23.53
2018-05-04T07:12:25.813Z,23.77
2018-05-04T07:13:26.388Z,23.46
2018-05-04T07:14:26.952Z,23.28
2018-05-04T07:15:27.526Z,22.84
2018-05-04T07:16:28.098Z,22.23
2018-05-04T07:17:28.661Z,22.17
2018-05-04T07:18:29.238Z,22.44
2018-05-04T07:19:29.807Z,22.44
2018-05-04T07:20:30.375Z,22.36
2018-05-04T07:21:30.962Z,22.62
2018-05-04T07:22:31.537Z,22.81
2018-05-04T07:23:32.103Z,22.91
2018-05-04T07:24:32.670Z,23.13
2018-05-04T07:25:33.242Z,23.24
2018-05-04T07:26:33.805Z,23.41
2018-05-04T07:27:34.385Z,23.39
2018-05-04T07:28:34.970Z,23.49
2018-05-04T07:29:35.548Z,23.53
2018-05-04T07:30:36.128Z,23.65
2018-05-04T07:31:36.706Z,23.65
2018-05-04T07:32:37.275Z,23.68
2018-05-04T07:33:37.845Z,23.66
2018-05-04T07:34:38.424Z,23.59
2018-05-04T07:35:38.988Z,23.54
2018-05-04T07:36:39.558Z,23.79
2018-05-04T07:37:40.129Z,23.99
2018-05-04T07:38:40.712Z,23.84
2018-05-04T07:39:41.284Z,23.50
2018-05-04T07:40:41.860Z,23.54
2018-05-04T07:41:42.433Z,23.99
2018-05-04T07:42:43.010Z,24.18
2018-05-04T07:43:43.585Z,24.24
2018-05-04T07:44:44.163Z,24.42
2018-05-04T07:45:44.730Z,24.38
2018-05-04T07:46:45.294Z,24.53
2018-05-04T07:47:45.869Z,24.45
2018-05-04T07:48:46.452Z,24.36
2018-05-04T07:49:47.018Z,24.18
2018-05-04T07:50:47.593Z,24.58
2018-05-04T07:51:48.166Z,24.48
2018-05-04T07:52:48.739Z,24.61
2018-05-04T07:53:49.323Z,24.39
2018-05-04T07:54:49.891Z,24.42
2018-05-04T07:55:50.460Z,24.58
2018-05-04T07:56:51.033Z,24.66
2018-05-04T07:57:51.606Z,24.20
2018-05-04T07:58:52.180Z,24.11
2018-05-04T07:59:52.752Z,23.95
2018-05-04T08:00:53.327Z,24.23
2018-05-04T08:01:53.948Z,24.17
2018-05-04T08:02:54.588Z,23.96
2018-05-04T08:03:55.083Z,23.98
2018-05-04T08:04:55.671Z,24.23
2018-05-04T08:05:56.242Z,24.24
2018-05-04T08:06:56.831Z,24.26
2018-05-04T08:07:57.413Z,24.16
2018-05-04T08:08:58.000Z,24.31
2018-05-04T08:09:58.564Z,24.48
2018-05-04T08:10:59.145Z,24.54
2018-05-04T08:11:59.754Z,24.88
2018-05-04T08:13:00.282Z,24.95
2018-05-04T08:14:00.860Z,25.02
2018-05-04T08:15:01.430Z,24.99
2018-05-04T08:16:02.006Z,25.06
2018-05-04T08:17:02.583Z,24.98
2018-05-04T08:18:03.152Z,24.86
2018-05-04T08:19:03.735Z,24.95
2018-05-04T08:20:04.382Z,24.66
2018-05-04T08:21:04.877Z,24.61
2018-05-04T08:22:05.448Z,25.06
2018-05-04T08:23:06.033Z,24.98
2018-05-04T08:24:06.633Z,24.98
2018-05-04T08:25:07.209Z,24.96
2018-05-04T08:26:07.789Z,24.69
2018-05-04T08:27:08.358Z,24.73
2018-05-04T08:28:08.934Z,24.57
2018-05-04T08:29:09.510Z,24.66
2018-05-04T08:30:10.080Z,24.80
2018-05-04T08:31:10.651Z,25.09
2018-05-04T08:32:11.224Z,25.16
2018-05-04T08:33:11.805Z,25.51
2018-05-04T08:34:12.376Z,25.53
2018-05-04T08:35:13.059Z,25.56
2018-05-04T08:36:13.522Z,25.38
2018-05-04T08:37:14.112Z,24.91
2018-05-04T08:38:14.681Z,24.88
2018-05-04T08:39:15.266Z,24.98
2018-05-04T08:40:15.837Z,25.01
2018-05-04T08:41:16.407Z,24.95
2018-05-04T08:42:16.993Z,24.95
2018-05-04T08:43:17.580Z,25.17
2018-05-04T08:44:18.166Z,25.41
2018-05-04T08:45:18.736Z,25.44
2018-05-04T08:46:19.306Z,25.61
2018-05-04T08:47:19.895Z,25.80
2018-05-04T08:48:20.502Z,25.75
2018-05-04T08:49:21.256Z,25.66
2018-05-04T08:50:21.839Z,25.73
2018-05-04T08:51:22.424Z,25.90
2018-05-04T08:52:23.015Z,26.13
2018-05-04T08:53:23.595Z,25.98
2018-05-04T08:54:24.174Z,25.80
2018-05-04T08:55:24.739Z,25.56
2018-05-04T08:56:25.313Z,25.56
2018-05-04T08:57:25.907Z,25.51
2018-05-04T08:58:26.478Z,25.47
2018-05-04T08:59:27.060Z,25.32
2018-05-04T09:00:27.637Z,25.02
2018-05-04T09:01:28.215Z,24.86
2018-05-04T09:02:28.806Z,24.61
2018-05-04T09:03:29.399Z,24.46
2018-05-04T09:04:29.976Z,24.57
2018-05-04T09:05:30.610Z,24.66
2018-05-04T09:06:31.118Z,24.56
2018-05-04T09:07:31.698Z,24.35
2018-05-04T09:08:32.266Z,24.09
2018-05-04T09:09:32.839Z,24.21
2018-05-04T09:10:33.415Z,24.45
2018-05-04T09:11:33.986Z,24.42
2018-05-04T09:12:34.564Z,24.48
2018-05-04T09:13:35.138Z,24.73
2018-05-04T09:14:35.714Z,24.99
2018-05-04T09:15:36.292Z,25.33
2018-05-04T09:16:36.864Z,25.53
2018-05-04T09:17:37.444Z,24.99
2018-05-04T09:18:38.014Z,24.95
2018-05-04T09:19:38.590Z,24.56
2018-05-04T09:20:39.157Z,24.60
2018-05-04T09:21:39.730Z,24.80
2018-05-04T09:22:40.307Z,24.83
2018-05-04T09:23:40.893Z,24.73
2018-05-04T09:24:41.470Z,24.76
2018-05-04T09:25:42.044Z,24.68
2018-05-04T09:26:42.612Z,24.66
2018-05-04T09:27:43.188Z,24.70
2018-05-04T09:28:43.762Z,24.61
2018-05-04T09:29:44.323Z,24.43
2018-05-04T09:30:44.901Z,23.84
2018-05-04T09:31:45.467Z,23.98
2018-05-04T09:32:46.052Z,23.94
2018-05-04T09:33:46.609Z,24.08
2018-05-04T09:34:47.186Z,23.84
2018-05-04T09:35:47.755Z,23.87
2018-05-04T09:36:48.325Z,23.98
2018-05-04T09:37:48.892Z,24.23
2018-05-04T09:38:49.462Z,24.41
2018-05-04T09:39:50.035Z,24.32
2018-05-04T09:40:50.607Z,24.24
2018-05-04T09:41:51.183Z,24.41
2018-05-04T09:42:51.753Z,24.56
2018-05-04T09:43:52.322Z,24.69
2018-05-04T09:44:53.094Z,24.68
2018-05-04T09:45:53.671Z,24.70
2018-05-04T09:46:54.236Z,24.46
2018-05-04T09:47:54.816Z,24.33
2018-05-04T09:48:55.397Z,24.14
2018-05-04T09:49:55.966Z,24.35
2018-05-04T09:50:56.551Z,24.43
2018-05-04T09:51:57.122Z,24.26
2018-05-04T09:52:57.697Z,24.13
2018-05-04T09:53:58.275Z,24.18
2018-05-04T09:54:58.850Z,24.33
2018-05-04T09:55:59.506Z,24.21
2018-05-04T09:56:59.980Z,23.84
2018-05-04T09:58:00.555Z,23.88
2018-05-04T09:59:01.129Z,24.13
2018-05-04T10:00:01.750Z,23.99
2018-05-04T10:01:02.335Z,23.98
2018-05-04T10:02:02.899Z,23.99
2018-05-04T10:03:03.485Z,23.94
2018-05-04T10:04:04.066Z,23.77
2018-05-04T10:05:04.638Z,23.65
2018-05-04T10:06:05.210Z,23.62
2018-05-04T10:07:05.784Z,23.72
2018-05-04T10:08:06.353Z,23.87
2018-05-04T10:09:06.940Z,23.98
2018-05-04T10:10:07.522Z,23.76
2018-05-04T10:11:08.102Z,23.50
2018-05-04T10:12:08.917Z,23.72
2018-05-04T10:13:09.489Z,23.79
2018-05-04T10:14:10.079Z,23.95
2018-05-04T10:15:10.668Z,23.96
2018-05-04T10:16:11.245Z,23.80
2018-05-04T10:17:11.814Z,24.16
2018-05-04T10:18:12.385Z,24.20
2018-05-04T10:19:12.967Z,24.28
2018-05-04T10:20:13.549Z,24.43
2018-05-04T10:21:14.120Z,24.42
2018-05-04T10:22:14.687Z,24.43
2018-05-04T10:23:15.271Z,24.48
2018-05-04T10:24:15.842Z,24.77
2018-05-04T10:25:16.427Z,24.81
2018-05-04T10:26:17.003Z,24.74
2018-05-04T10:27:17.574Z,24.66
2018-05-04T10:28:18.157Z,24.94
2018-05-04T10:29:18.946Z,25.02
2018-05-04T10:30:19.718Z,25.09
2018-05-04T10:31:20.366Z,25.17
2018-05-04T10:32:20.877Z,25.01
2018-05-04T10:33:21.452Z,24.99
2018-05-04T10:34:22.047Z,24.41
2018-05-04T10:35:22.626Z,24.39
2018-05-04T10:36:23.195Z,24.05
2018-05-04T10:37:23.763Z,24.11
2018-05-04T10:38:24.539Z,24.14
2018-05-04T10:39:25.031Z,24.54
2018-05-04T10:40:25.610Z,24.41
2018-05-04T10:41:26.192Z,24.18
2018-05-04T10:42:26.770Z,24.43
2018-05-04T10:43:27.342Z,24.56
2018-05-04T10:44:27.927Z,24.69
2018-05-04T10:45:28.508Z,24.64
2018-05-04T10:46:29.070Z,24.64
2018-05-04T10:47:29.659Z,24.56
2018-05-04T10:48:30.236Z,24.51
2018-05-04T10:49:30.811Z,24.69
2018-05-04T10:50:31.378Z,24.83
2018-05-04T10:51:31.959Z,24.99
2018-05-04T10:52:32.551Z,25.04
2018-05-04T10:53:33.129Z,24.80
2018-05-04T10:54:33.699Z,24.42
2018-05-04T10:55:34.266Z,24.39
2018-05-04T10:56:34.843Z,24.36
2018-05-04T10:57:35.413Z,24.38
2018-05-04T10:58:35.977Z,24.11
2018-05-04T10:59:36.550Z,24.38
2018-05-04T11:00:37.121Z,24.53
2018-05-04T11:01:37.690Z,24.54
2018-05-04T11:02:38.259Z,24.94
2018-05-04T11:03:38.842Z,24.95
2018-05-04T11:04:39.402Z,24.98
2018-05-04T11:05:39.971Z,24.83
2018-05-04T11:06:40.549Z,24.83
2018-05-04T11:07:41.168Z,24.86
2018-05-04T11:08:41.731Z,24.89
2018-05-04T11:09:42.304Z,24.89
2018-05-04T11:10:42.872Z,24.76
2018-05-04T11:11:43.444Z,24.68
2018-05-04T11:12:44.015Z,24.92
2018-05-04T11:13:44.580Z,24.61
2018-05-04T11:14:45.151Z,24.58
2018-05-04T11:15:45.723Z,24.95
2018-05-04T11:16:46.284Z,25.50
2018-05-04T11:17:46.859Z,25.24
2018-05-04T11:18:47.427Z,25.06
2018-05-04T11:19:48.000Z,25.32
2018-05-04T11:20:48.571Z,25.16
2018-05-04T11:21:49.136Z,24.88
2018-05-04T11:22:49.714Z,25.01
2018-05-04T11:23:50.280Z,24.80
2018-05-04T11:24:50.852Z,24.89
2018-05-04T11:25:51.416Z,25.16
2018-05-04T11:26:52.026Z,25.57
2018-05-04T11:27:52.551Z,25.88
2018-05-04T11:28:53.118Z,26.02
2018-05-04T11:29:53.694Z,26.32
2018-05-04T11:30:54.348Z,26.25
2018-05-04T11:31:54.825Z,26.54
2018-05-04T11:32:55.397Z,26.55
2018-05-04T11:33:55.970Z,26.74
2018-05-04T11:34:56.534Z,26.78
2018-05-04T11:35:57.104Z,26.37
2018-05-04T11:36:57.676Z,26.29
2018-05-04T11:37:58.247Z,26.61
2018-05-04T11:38:58.849Z,26.73
2018-05-04T11:39:59.385Z,26.34
2018-05-04T11:40:59.951Z,26.13
2018-05-04T11:42:00.524Z,26.25
2018-05-04T11:43:01.086Z,26.25
2018-05-04T11:44:01.658Z,26.18
2018-05-04T11:45:02.236Z,26.77
2018-05-04T11:46:02.805Z,26.95
2018-05-04T11:47:03.376Z,27.02
2018-05-04T11:48:03.954Z,27.17
2018-05-04T11:49:04.516Z,27.47
2018-05-04T11:50:05.088Z,27.37
2018-05-04T11:51:05.655Z,27.32
2018-05-04T11:52:06.227Z,26.88
2018-05-04T11:53:06.795Z,26.80
2018-05-04T11:54:07.364Z,26.91
2018-05-04T11:55:07.996Z,26.98
2018-05-04T11:56:08.503Z,26.95
2018-05-04T11:57:09.075Z,26.92
2018-05-04T11:58:09.647Z,27.02
2018-05-04T11:59:10.210Z,26.95
2018-05-04T12:00:10.791Z,27.03
2018-05-04T12:01:11.364Z,27.21
2018-05-04T12:02:11.930Z,27.55
2018-05-04T12:03:12.496Z,27.21
2018-05-04T12:04:13.062Z,27.02
2018-05-04T12:05:13.637Z,27.00
2018-05-04T12:06:14.204Z,27.21
2018-05-04T12:07:14.789Z,27.42
2018-05-04T12:08:15.349Z,27.54
2018-05-04T12:09:15.913Z,27.78
2018-05-04T12:10:16.494Z,27.68
2018-05-04T12:11:17.055Z,27.78
2018-05-04T12:12:17.626Z,27.80
2018-05-04T12:13:18.193Z,27.85
2018-05-04T12:14:18.757Z,28.00
2018-05-04T12:15:19.323Z,28.15
2018-05-04T12:16:19.958Z,27.95
2018-05-04T12:17:20.463Z,27.99
2018-05-04T12:18:21.034Z,28.29
2018-05-04T12:19:21.610Z,28.41
2018-05-04T12:20:22.171Z,28.25
2018-05-04T12:21:22.743Z,27.86
2018-05-04T12:22:23.315Z,27.58
2018-05-04T12:23:23.887Z,27.51
2018-05-04T12:24:24.455Z,27.78
2018-05-04T12:25:25.025Z,28.25
2018-05-04T12:26:25.588Z,28.26
2018-05-04T12:27:26.161Z,28.41
2018-05-04T12:28:26.751Z,28.40
2018-05-04T12:29:27.567Z,28.22
2018-05-04T12:30:28.173Z,27.88
2018-05-04T12:31:28.750Z,27.66
2018-05-04T12:32:29.308Z,27.43
2018-05-04T12:33:29.892Z,27.58
2018-05-04T12:34:30.471Z,27.62
2018-05-04T12:35:31.177Z,28.18
2018-05-04T12:36:31.754Z,28.32
2018-05-04T12:37:32.331Z,28.82
2018-05-04T12:38:32.978Z,28.66
2018-05-04T12:39:33.475Z,28.87
2018-05-04T12:40:34.055Z,28.59
2018-05-04T12:41:34.629Z,28.73
2018-05-04T12:42:35.194Z,28.79
2018-05-04T12:43:35.773Z,28.92
2018-05-04T12:44:36.361Z,29.00
2018-05-04T12:45:36.951Z,28.91
2018-05-04T12:46:37.526Z,28.45
2018-05-04T12:47:38.107Z,28.20
2018-05-04T12:48:38.690Z,28.20
2018-05-04T12:49:39.253Z,28.27
2018-05-04T12:50:39.824Z,28.55
2018-05-04T12:51:40.401Z,29.20
2018-05-04T12:52:40.979Z,29.39
2018-05-04T12:53:41.554Z,29.81
2018-05-04T12:54:42.109Z,29.74
2018-05-04T12:55:42.679Z,29.41
2018-05-04T12:56:43.257Z,29.29
2018-05-04T12:57:43.837Z,29.17
2018-05-04T12:58:44.396Z,29.11
2018-05-04T12:59:44.967Z,29.10
2018-05-04T13:00:45.539Z,29.39
2018-05-04T13:01:46.114Z,29.13
2018-05-04T13:02:46.683Z,28.81
2018-05-04T13:03:47.247Z,29.13
2018-05-04T13:04:47.810Z,29.25
2018-05-04T13:05:48.384Z,29.13
2018-05-04T13:06:48.944Z,29.10
2018-05-04T13:07:49.521Z,29.16
2018-05-04T13:08:50.090Z,29.08
2018-05-04T13:09:50.658Z,28.89